Time;durP1;ratioP1;P1;durP2;ratioP2;P2;SDS_P1;SDS_P2;PMS_P1;PMS_P2;Temp;Humidity;BMP_temperature;BMP_pressure;BME280_temperature;BME280_humidity;BME280_pressure;Samples;Min_cycle;Max_cycle;Signal;HPM_P1;HPM_P2
2022/02/02 00:00:15;;;;;;;;;;;3.90;99.90;;;;;;5122425;27;19916;-72
2022/02/02 00:02:19;;;;;;;;;;;3.90;99.90;;;;;;5113184;27;19922;-73
2022/02/02 00:04:49;;;;;;;;;;;3.90;99.90;;;;;;5127712;27;20064;-74
2022/02/02 00:09:54;;;;;;;;;;;3.80;99.90;;;;;;5131839;27;20219;-73
2022/02/02 00:17:53;;;;;;;;;;;3.80;99.90;;;;;;5114483;27;19958;-72
2022/02/02 00:20:28;;;;;;;;;;;3.70;99.90;;;;;;5129337;27;19911;-72
2022/02/02 00:22:57;;;;;;;;;;;3.80;99.90;;;;;;5124167;27;19923;-73
2022/02/02 00:25:30;;;;;;;;;;;3.80;99.90;;;;;;5129828;27;19911;-72
2022/02/02 00:27:58;;;;;;;;;;;3.90;99.90;;;;;;5123084;27;19970;-74
2022/02/02 00:30:28;;;;;;;;;;;3.90;99.90;;;;;;5126672;27;19912;-74
2022/02/02 00:35:24;;;;;;;;;;;3.90;99.90;;;;;;5136160;27;19911;-72
2022/02/02 00:37:50;;;;;;;;;;;3.90;99.90;;;;;;5125731;27;19991;-72
2022/02/02 00:40:15;;;;;;;;;;;3.90;99.90;;;;;;5127367;27;19943;-72
2022/02/02 00:42:44;;;;;;;;;;;3.80;99.90;;;;;;5118764;27;20002;-73
2022/02/02 00:45:10;;;;;;;;;;;3.80;99.90;;;;;;5128847;27;19915;-73
2022/02/02 00:47:38;;;;;;;;;;;3.80;99.90;;;;;;5121473;27;20366;-73
2022/02/02 00:50:05;;;;;;;;;;;3.70;99.90;;;;;;5126362;27;19954;-72
2022/02/02 00:52:30;;;;;;;;;;;3.80;99.90;;;;;;5123525;27;20428;-73
2022/02/02 00:54:56;;;;;;;;;;;3.70;99.90;;;;;;5132193;27;19966;-73
2022/02/02 00:57:23;;;;;;;;;;;3.80;99.90;;;;;;5121634;27;19926;-73
2022/02/02 00:59:49;;;;;;;;;;;3.80;99.90;;;;;;5128028;27;19915;-72
2022/02/02 01:02:15;;;;;;;;;;;3.80;99.90;;;;;;5113920;27;19923;-73
2022/02/02 01:04:41;;;;;;;;;;;3.90;99.90;;;;;;5119271;27;19923;-72
2022/02/02 01:07:18;;;;;;;;;;;3.90;99.90;;;;;;5128634;27;20361;-72
2022/02/02 01:10:03;;;;;;;;;;;3.90;99.90;;;;;;5126970;27;19912;-72
2022/02/02 01:28:10;;;;;;;;;;;3.90;99.90;;;;;;5121074;27;20403;-73
2022/02/02 01:30:36;;;;;;;;;;;3.90;99.90;;;;;;5128179;27;20412;-73
2022/02/02 01:33:01;;;;;;;;;;;4.00;99.90;;;;;;5119162;27;19981;-73
2022/02/02 01:35:27;;;;;;;;;;;4.00;99.90;;;;;;5125026;27;19919;-72
2022/02/02 01:37:53;;;;;;;;;;;4.10;99.90;;;;;;5125166;27;19911;-72
2022/02/02 01:43:00;;;;;;;;;;;3.90;99.90;;;;;;5123962;27;19926;-72
2022/02/02 01:45:37;;;;;;;;;;;3.90;99.90;;;;;;5136393;27;19911;-72
2022/02/02 01:53:40;;;;;;;;;;;3.80;99.90;;;;;;5118810;28;20285;-72
2022/02/02 01:56:08;;;;;;;;;;;3.80;99.90;;;;;;5123118;28;19912;-73
2022/02/02 02:01:00;;;;;;;;;;;3.70;99.90;;;;;;5131213;27;19985;-72
2022/02/02 02:03:26;;;;;;;;;;;3.70;99.90;;;;;;5128452;27;19915;-72
2022/02/02 02:05:51;;;;;;;;;;;3.70;99.90;;;;;;5126646;27;19919;-72
2022/02/02 02:08:17;;;;;;;;;;;3.70;99.90;;;;;;5129280;28;19912;-72
2022/02/02 02:10:43;;;;;;;;;;;3.60;99.90;;;;;;5125057;28;19915;-72
2022/02/02 02:13:14;;;;;;;;;;;3.70;99.90;;;;;;5124793;28;19911;-73
2022/02/02 02:15:42;;;;;;;;;;;3.80;99.90;;;;;;5128296;27;19914;-73
2022/02/02 02:18:08;;;;;;;;;;;3.70;99.90;;;;;;5140694;28;19911;-73
2022/02/02 02:20:33;;;;;;;;;;;3.70;99.90;;;;;;5141296;28;19981;-72
2022/02/02 02:22:59;;;;;;;;;;;3.70;99.90;;;;;;5123770;28;19916;-73
2022/02/02 02:25:27;;;;;;;;;;;3.70;99.90;;;;;;5135037;27;19912;-73
2022/02/02 02:27:53;;;;;;;;;;;3.70;99.90;;;;;;5125773;27;19915;-73
2022/02/02 02:30:47;;;;;;;;;;;3.70;99.90;;;;;;5110975;28;20037;-72
2022/02/02 02:57:37;;;;;;;;;;;3.80;99.90;;;;;;5129674;27;20405;-72
2022/02/02 03:56:37;;;;;;;;;;;4.40;99.90;;;;;;5124414;27;19958;-72
2022/02/02 04:06:25;;;;;;;;;;;4.30;99.90;;;;;;5119215;27;20019;-72
2022/02/02 04:08:51;;;;;;;;;;;4.30;99.90;;;;;;5129065;27;19919;-73
2022/02/02 04:11:37;;;;;;;;;;;4.20;99.90;;;;;;5126024;27;19915;-73
2022/02/02 04:15:23;;;;;;;;;;;4.20;99.90;;;;;;5126317;27;20437;-72
2022/02/02 05:05:57;;;;;;;;;;;4.20;99.90;;;;;;5120402;27;19912;-72
2022/02/02 05:09:31;;;;;;;;;;;4.20;99.90;;;;;;5121755;27;19911;-73
2022/02/02 05:28:43;;;;;;;;;;;4.20;99.90;;;;;;5102714;27;20030;-72
2022/02/02 05:44:10;;;;;;;;;;;4.20;99.90;;;;;;5124147;27;19966;-72
2022/02/02 05:49:40;;;;;;;;;;;4.20;99.90;;;;;;5121343;27;19934;-73
2022/02/02 05:52:10;;;;;;;;;;;4.20;99.90;;;;;;5115132;28;20365;-72
2022/02/02 05:54:36;;;;;;;;;;;4.30;99.90;;;;;;5118221;27;19911;-73
2022/02/02 05:57:02;;;;;;;;;;;4.40;99.90;;;;;;5122106;27;19920;-73
2022/02/02 05:59:32;;;;;;;;;;;4.40;99.90;;;;;;5125212;27;19921;-73
2022/02/02 06:01:58;;;;;;;;;;;4.50;99.90;;;;;;5117910;28;19968;-72
2022/02/02 06:04:25;;;;;;;;;;;4.60;99.90;;;;;;5124391;27;19912;-71
2022/02/02 06:06:53;;;;;;;;;;;4.70;99.90;;;;;;5114038;28;19930;-74
2022/02/02 06:09:19;;;;;;;;;;;4.70;99.90;;;;;;5117536;28;19920;-73
2022/02/02 06:11:50;;;;;;;;;;;4.80;99.90;;;;;;5118771;28;19912;-73
2022/02/02 06:14:18;;;;;;;;;;;4.70;99.90;;;;;;5123949;27;19922;-72
2022/02/02 06:16:43;;;;;;;;;;;4.70;99.90;;;;;;5122097;27;20365;-73
2022/02/02 06:19:09;;;;;;;;;;;4.70;99.90;;;;;;5124449;27;19919;-73
2022/02/02 06:21:35;;;;;;;;;;;4.70;99.90;;;;;;5121144;27;20590;-72
2022/02/02 06:24:09;;;;;;;;;;;4.70;99.90;;;;;;5134131;27;19928;-72
2022/02/02 06:26:36;;;;;;;;;;;4.70;99.90;;;;;;5141782;27;19923;-72
2022/02/02 06:29:03;;;;;;;;;;;4.60;99.90;;;;;;5131280;27;20400;-74
2022/02/02 06:31:30;;;;;;;;;;;4.60;99.90;;;;;;5124066;27;19911;-72
2022/02/02 06:33:58;;;;;;;;;;;4.60;99.90;;;;;;5132939;27;19958;-72
2022/02/02 06:36:27;;;;;;;;;;;4.70;99.90;;;;;;5123113;27;19912;-72
2022/02/02 06:38:52;;;;;;;;;;;4.70;99.90;;;;;;5132308;27;19957;-72
2022/02/02 06:41:18;;;;;;;;;;;4.70;99.90;;;;;;5132080;27;19954;-73
2022/02/02 06:43:44;;;;;;;;;;;4.80;99.90;;;;;;5127598;27;19919;-72
2022/02/02 06:46:10;;;;;;;;;;;4.80;99.90;;;;;;5124732;27;19912;-73
2022/02/02 06:48:36;;;;;;;;;;;4.80;99.90;;;;;;5131844;27;19919;-73
2022/02/02 06:51:10;;;;;;;;;;;4.80;99.90;;;;;;5126474;27;20006;-73
2022/02/02 06:53:46;;;;;;;;;;;4.80;99.90;;;;;;5130641;27;19911;-73
2022/02/02 07:04:53;;;;;;;;;;;4.60;99.90;;;;;;5119530;27;19922;-71
2022/02/02 07:12:29;;;;;;;;;;;4.70;99.90;;;;;;5121798;27;19911;-74
2022/02/02 07:15:18;;;;;;;;;;;4.80;99.90;;;;;;5125318;27;19923;-72
2022/02/02 07:21:22;;;;;;;;;;;5.20;99.90;;;;;;5130148;27;19932;-73
2022/02/02 07:23:37;;;;;;;;;;;5.20;99.90;;;;;;5126909;27;19915;-73
2022/02/02 07:33:39;;;;;;;;;;;5.40;99.90;;;;;;5125598;27;19919;-73
2022/02/02 07:36:15;;;;;;;;;;;5.50;99.90;;;;;;5126133;27;19915;-74
2022/02/02 07:39:01;;;;;;;;;;;5.70;99.90;;;;;;5125780;27;20541;-73
2022/02/02 07:41:32;;;;;;;;;;;5.80;99.90;;;;;;5128595;27;20335;-73
2022/02/02 07:44:04;;;;;;;;;;;5.80;99.90;;;;;;5117859;27;19924;-74
2022/02/02 07:46:31;;;;;;;;;;;5.80;99.90;;;;;;5123137;27;19968;-73
2022/02/02 07:48:57;;;;;;;;;;;5.80;99.90;;;;;;5128120;27;19919;-72
2022/02/02 07:51:25;;;;;;;;;;;5.80;99.90;;;;;;5129045;27;19911;-74
2022/02/02 07:53:53;;;;;;;;;;;5.80;99.90;;;;;;5132156;27;20003;-73
2022/02/02 07:56:20;;;;;;;;;;;5.80;99.90;;;;;;5120102;27;20382;-72
2022/02/02 07:58:49;;;;;;;;;;;5.80;99.90;;;;;;5127565;27;19912;-73
2022/02/02 08:01:16;;;;;;;;;;;5.80;99.90;;;;;;5125145;27;19914;-74
2022/02/02 08:03:51;;;;;;;;;;;5.90;99.90;;;;;;5130940;27;19947;-72
2022/02/02 08:06:20;;;;;;;;;;;6.00;99.90;;;;;;5114233;27;20023;-73
2022/02/02 08:08:49;;;;;;;;;;;6.00;99.90;;;;;;5127473;27;20391;-74
2022/02/02 08:11:15;;;;;;;;;;;6.10;99.90;;;;;;5124544;27;19932;-73
2022/02/02 08:13:44;;;;;;;;;;;6.10;99.90;;;;;;5125571;27;19919;-74
2022/02/02 08:16:13;;;;;;;;;;;6.20;99.90;;;;;;5125844;27;19911;-72
2022/02/02 08:18:54;;;;;;;;;;;6.30;99.90;;;;;;5121218;27;19911;-73
2022/02/02 08:21:25;;;;;;;;;;;6.50;99.90;;;;;;5125062;27;19968;-72
2022/02/02 08:23:50;;;;;;;;;;;6.70;99.90;;;;;;5132677;27;19915;-74
2022/02/02 08:26:16;;;;;;;;;;;6.90;99.90;;;;;;5125867;27;20088;-75
2022/02/02 08:28:43;;;;;;;;;;;6.90;99.90;;;;;;5129296;27;19912;-72
2022/02/02 08:31:09;;;;;;;;;;;7.00;99.90;;;;;;5128540;27;19912;-73
2022/02/02 08:33:38;;;;;;;;;;;7.00;99.90;;;;;;5127454;27;19918;-73
2022/02/02 08:36:14;;;;;;;;;;;7.00;99.90;;;;;;5132141;27;19911;-75
2022/02/02 08:41:14;;;;;;;;;;;7.30;99.90;;;;;;5129766;27;19919;-73
2022/02/02 08:43:50;;;;;;;;;;;7.20;99.90;;;;;;5133583;27;19960;-74
2022/02/02 08:46:38;;;;;;;;;;;7.20;99.90;;;;;;5128634;27;19911;-74
2022/02/02 08:49:08;;;;;;;;;;;7.50;99.90;;;;;;5123663;27;19911;-73
2022/02/02 08:51:39;;;;;;;;;;;7.50;99.90;;;;;;5129416;27;19919;-73
2022/02/02 08:59:21;;;;;;;;;;;7.60;99.90;;;;;;5129733;27;19918;-73
2022/02/02 09:01:49;;;;;;;;;;;7.70;99.90;;;;;;5130386;27;20059;-75
2022/02/02 09:06:58;;;;;;;;;;;7.90;99.90;;;;;;5124200;27;19937;-73
2022/02/02 09:09:42;;;;;;;;;;;8.20;99.90;;;;;;5129885;27;20362;-72
2022/02/02 09:20:57;;;;;;;;;;;8.90;99.90;;;;;;5128988;27;20607;-74
2022/02/02 09:36:26;;;;;;;;;;;9.10;99.90;;;;;;5122976;27;20373;-73
2022/02/02 09:38:53;;;;;;;;;;;9.40;99.90;;;;;;5122434;27;19916;-74
2022/02/02 09:43:53;;;;;;;;;;;9.60;99.90;;;;;;5119043;27;19957;-73
2022/02/02 09:46:23;;;;;;;;;;;9.70;99.90;;;;;;5114552;27;19912;-73
2022/02/02 09:48:56;;;;;;;;;;;9.90;99.90;;;;;;5118051;27;19912;-75
2022/02/02 09:51:30;;;;;;;;;;;9.90;99.90;;;;;;5122047;28;19919;-73
2022/02/02 09:54:46;;;;;;;;;;;9.90;99.90;;;;;;5127590;28;19918;-74
2022/02/02 09:57:33;;;;;;;;;;;10.00;99.90;;;;;;5114288;27;20468;-75
2022/02/02 10:02:29;;;;;;;;;;;10.40;99.90;;;;;;5131571;27;19924;-74
2022/02/02 10:05:06;;;;;;;;;;;10.40;99.90;;;;;;5130071;27;19918;-75
2022/02/02 10:07:51;;;;;;;;;;;10.60;99.90;;;;;;5126998;27;20299;-75
2022/02/02 10:15:27;;;;;;;;;;;10.80;99.90;;;;;;5118994;28;20392;-74
2022/02/02 10:17:57;;;;;;;;;;;10.70;99.90;;;;;;5131945;28;19968;-74
2022/02/02 10:20:24;;;;;;;;;;;10.50;99.90;;;;;;5124704;28;19918;-75
2022/02/02 10:22:51;;;;;;;;;;;10.50;99.90;;;;;;5129163;28;19916;-73
2022/02/02 10:25:30;;;;;;;;;;;10.50;99.90;;;;;;5121195;28;20337;-74
2022/02/02 10:28:09;;;;;;;;;;;10.50;99.90;;;;;;5123527;28;19965;-72
2022/02/02 10:30:35;;;;;;;;;;;10.40;99.90;;;;;;5124163;28;19914;-73
2022/02/02 10:33:02;;;;;;;;;;;10.10;99.90;;;;;;5128470;28;19911;-74
2022/02/02 10:35:42;;;;;;;;;;;10.00;99.90;;;;;;5127045;27;19959;-75
2022/02/02 10:38:14;;;;;;;;;;;9.70;99.90;;;;;;5118475;28;19956;-74
2022/02/02 10:41:07;;;;;;;;;;;9.50;99.90;;;;;;5130321;27;20011;-72
2022/02/02 10:43:43;;;;;;;;;;;9.60;99.90;;;;;;5123853;28;19915;-74
2022/02/02 10:46:10;;;;;;;;;;;9.70;99.90;;;;;;5127096;28;19934;-73
2022/02/02 10:49:03;;;;;;;;;;;9.80;99.90;;;;;;5130059;28;19994;-74
2022/02/02 10:51:37;;;;;;;;;;;9.80;99.90;;;;;;5127188;28;19964;-73
2022/02/02 10:54:13;;;;;;;;;;;9.90;99.90;;;;;;5127485;27;19914;-73
2022/02/02 10:56:46;;;;;;;;;;;9.90;99.90;;;;;;5129803;28;19920;-73
2022/02/02 10:59:21;;;;;;;;;;;9.80;99.90;;;;;;5132042;27;20310;-74
2022/02/02 11:07:18;;;;;;;;;;;9.80;99.90;;;;;;5122915;27;19964;-68
2022/02/02 11:09:47;;;;;;;;;;;9.80;99.90;;;;;;5133206;27;19935;-69
2022/02/02 11:12:29;;;;;;;;;;;9.90;99.90;;;;;;5123933;27;20334;-69
2022/02/02 11:14:59;;;;;;;;;;;9.80;99.90;;;;;;5127930;27;19912;-69
2022/02/02 11:17:38;;;;;;;;;;;9.80;99.90;;;;;;5117712;27;20023;-68
2022/02/02 11:20:06;;;;;;;;;;;9.80;99.90;;;;;;5115809;27;19911;-68
2022/02/02 11:22:32;;;;;;;;;;;9.90;99.90;;;;;;5116409;27;19919;-69
2022/02/02 11:24:58;;;;;;;;;;;10.00;99.90;;;;;;5118632;27;19911;-70
2022/02/02 11:27:33;;;;;;;;;;;10.00;99.90;;;;;;5118296;27;20230;-69
2022/02/02 11:30:00;;;;;;;;;;;10.20;99.90;;;;;;5134708;27;19968;-69
2022/02/02 11:32:37;;;;;;;;;;;10.20;99.90;;;;;;5114152;27;19922;-69
2022/02/02 11:35:21;;;;;;;;;;;10.10;99.90;;;;;;5130739;27;19913;-68
2022/02/02 11:37:54;;;;;;;;;;;10.20;99.90;;;;;;5128090;27;19971;-68
2022/02/02 11:40:20;;;;;;;;;;;10.00;99.90;;;;;;5123924;27;19912;-69
2022/02/02 11:45:35;;;;;;;;;;;10.00;99.90;;;;;;5130641;27;19911;-68
2022/02/02 11:48:07;;;;;;;;;;;10.00;99.90;;;;;;5127075;27;20373;-67
2022/02/02 11:50:53;;;;;;;;;;;10.00;99.90;;;;;;5124898;27;19923;-69
2022/02/02 11:53:37;;;;;;;;;;;10.00;99.90;;;;;;5118064;27;19912;-68
2022/02/02 11:56:03;;;;;;;;;;;10.00;99.90;;;;;;5134389;27;20002;-68
2022/02/02 11:58:35;;;;;;;;;;;10.10;99.90;;;;;;5117505;27;19990;-68
2022/02/02 12:03:41;;;;;;;;;;;10.20;99.90;;;;;;5136802;27;19962;-67
2022/02/02 12:07:01;;;;;;;;;;;10.20;99.90;;;;;;5138639;27;20015;-68
2022/02/02 12:09:15;;;;;;;;;;;10.20;99.90;;;;;;5119364;27;19916;-69
2022/02/02 12:35:56;;;;;;;;;;;10.60;99.90;;;;;;5122044;27;19918;-67
2022/02/02 13:00:09;;;;;;;;;;;9.60;99.90;;;;;;5124039;27;19912;-67
2022/02/02 13:02:36;;;;;;;;;;;9.60;99.90;;;;;;5116494;27;20003;-65
2022/02/02 13:05:03;;;;;;;;;;;9.70;99.90;;;;;;5134973;27;19917;-65
2022/02/02 13:07:30;;;;;;;;;;;9.70;99.90;;;;;;5134009;27;19923;-64
2022/02/02 13:09:57;;;;;;;;;;;9.70;99.90;;;;;;5130004;27;19911;-64
2022/02/02 13:12:35;;;;;;;;;;;9.70;99.90;;;;;;5114764;27;20305;-65
2022/02/02 13:26:26;;;;;;;;;;;9.90;99.90;;;;;;5130287;27;19915;-64
2022/02/02 13:29:08;;;;;;;;;;;9.90;99.90;;;;;;5113890;27;19911;-64
2022/02/02 13:34:15;;;;;;;;;;;9.80;99.90;;;;;;5123192;27;19995;-64
2022/02/02 13:42:32;;;;;;;;;;;9.90;99.90;;;;;;5132696;27;19990;-65
2022/02/02 13:53:36;;;;;;;;;;;10.00;99.90;;;;;;5123449;27;19947;-67
2022/02/02 13:59:17;;;;;;;;;;;10.00;99.90;;;;;;5113382;27;20326;-66
2022/02/02 14:04:27;;;;;;;;;;;10.10;99.90;;;;;;5120731;28;19987;-67
2022/02/02 14:31:23;;;;;;;;;;;9.80;99.90;;;;;;5127408;27;19923;-65
2022/02/02 14:33:55;;;;;;;;;;;9.70;99.90;;;;;;5125557;27;19912;-66
2022/02/02 14:39:22;;;;;;;;;;;9.80;99.90;;;;;;5130394;27;19955;-65
2022/02/02 14:42:04;;;;;;;;;;;9.80;99.90;;;;;;5133645;27;19912;-66
2022/02/02 14:44:37;;;;;;;;;;;9.80;99.90;;;;;;5129982;27;20723;-65
2022/02/02 14:47:13;;;;;;;;;;;9.80;99.90;;;;;;5130552;27;19918;-66
2022/02/02 14:49:50;;;;;;;;;;;9.80;99.90;;;;;;5130831;27;19933;-65
2022/02/02 14:52:42;;;;;;;;;;;9.80;99.90;;;;;;5123654;27;20294;-66
2022/02/02 15:23:54;;;;;;;;;;;9.80;99.90;;;;;;5128576;27;20413;-65
2022/02/02 15:27:52;;;;;;;;;;;9.70;99.90;;;;;;5133629;27;19907;-65
2022/02/02 15:32:52;;;;;;;;;;;9.70;99.90;;;;;;5129585;27;19918;-64
2022/02/02 15:35:19;;;;;;;;;;;9.70;99.90;;;;;;5130324;27;19911;-65
2022/02/02 15:40:42;;;;;;;;;;;9.70;99.90;;;;;;5129788;27;19926;-66
2022/02/02 15:59:16;;;;;;;;;;;9.40;99.90;;;;;;5118534;27;19908;-65
2022/02/02 16:04:20;;;;;;;;;;;9.20;99.90;;;;;;5124827;27;19958;-66
2022/02/02 16:06:45;;;;;;;;;;;9.10;99.90;;;;;;5131964;27;19922;-66
2022/02/02 16:11:36;;;;;;;;;;;9.00;99.90;;;;;;5133440;27;19922;-65
2022/02/02 16:14:06;;;;;;;;;;;9.00;99.90;;;;;;5121939;27;19924;-66
2022/02/02 16:37:47;;;;;;;;;;;8.60;99.90;;;;;;5119399;27;20425;-66
2022/02/02 16:40:20;;;;;;;;;;;8.50;99.90;;;;;;5131354;27;19911;-65
2022/02/02 16:45:30;;;;;;;;;;;8.70;99.90;;;;;;5130473;27;20418;-64
2022/02/02 16:47:56;;;;;;;;;;;8.70;99.90;;;;;;5130830;27;19908;-63
2022/02/02 16:50:27;;;;;;;;;;;8.70;99.90;;;;;;5125735;27;20352;-65
2022/02/02 16:52:56;;;;;;;;;;;8.60;99.90;;;;;;5125088;27;19908;-67
2022/02/02 16:55:36;;;;;;;;;;;8.40;99.90;;;;;;5129711;27;20007;-67
2022/02/02 17:28:37;;;;;;;;;;;7.80;99.90;;;;;;5129390;27;19958;-67
2022/02/02 17:30:34;;;;;;;;;;;7.90;99.90;;;;;;5128748;27;20071;-67
2022/02/02 17:35:35;;;;;;;;;;;8.10;99.90;;;;;;5130110;27;20022;-67
2022/02/02 17:38:12;;;;;;;;;;;8.20;99.90;;;;;;5124360;27;19930;-67
2022/02/02 18:18:36;;;;;;;;;;;7.40;99.90;;;;;;5133320;27;20500;-74
2022/02/02 18:20:38;;;;;;;;;;;7.30;99.90;;;;;;5135216;27;20059;-74
2022/02/02 18:25:44;;;;;;;;;;;7.30;99.90;;;;;;5134684;27;19999;-75
2022/02/02 18:33:25;;;;;;;;;;;7.20;99.90;;;;;;5133950;27;20466;-74
2022/02/02 18:36:04;;;;;;;;;;;7.20;99.90;;;;;;5127185;27;20460;-76
2022/02/02 18:46:41;;;;;;;;;;;7.10;99.90;;;;;;5133052;27;19919;-75
2022/02/02 19:01:42;;;;;;;;;;;6.90;99.90;;;;;;5129000;27;20447;-73
2022/02/02 19:30:56;;;;;;;;;;;7.00;99.90;;;;;;5125462;27;19996;-75
2022/02/02 19:31:45;;;;;;;;;;;6.90;99.90;;;;;;5129775;27;20364;-74
2022/02/02 19:37:23;;;;;;;;;;;7.10;99.90;;;;;;5130349;27;19919;-75
2022/02/02 20:02:19;;;;;;;;;;;6.70;99.90;;;;;;5125654;27;20397;-74
2022/02/02 20:07:43;;;;;;;;;;;6.50;99.90;;;;;;5133951;27;19922;-76
2022/02/02 20:12:39;;;;;;;;;;;6.40;99.90;;;;;;5133033;27;19907;-74
2022/02/02 20:15:06;;;;;;;;;;;6.30;99.90;;;;;;5126090;27;19919;-75
2022/02/02 20:17:33;;;;;;;;;;;6.20;99.90;;;;;;5125146;27;20265;-73
2022/02/02 20:20:10;;;;;;;;;;;6.30;99.90;;;;;;5122522;27;20011;-74
2022/02/02 20:22:36;;;;;;;;;;;6.40;99.90;;;;;;5125751;27;19919;-75
2022/02/02 20:25:03;;;;;;;;;;;6.40;99.90;;;;;;5134436;27;19915;-73
2022/02/02 20:27:30;;;;;;;;;;;6.70;99.90;;;;;;5125193;27;20365;-73
2022/02/02 20:29:56;;;;;;;;;;;6.80;99.90;;;;;;5118409;27;20346;-74
2022/02/02 20:32:22;;;;;;;;;;;6.70;99.90;;;;;;5129550;27;19951;-73
2022/02/02 20:34:47;;;;;;;;;;;6.80;99.90;;;;;;5128485;27;20654;-73
2022/02/02 20:37:23;;;;;;;;;;;6.80;99.90;;;;;;5118803;27;19911;-74
2022/02/02 20:39:56;;;;;;;;;;;6.80;99.90;;;;;;5127283;27;20497;-74
2022/02/02 20:43:07;;;;;;;;;;;6.90;99.90;;;;;;5124041;27;20269;-72
2022/02/02 21:02:20;;;;;;;;;;;7.00;99.90;;;;;;5131580;27;19933;-73
2022/02/02 21:07:24;;;;;;;;;;;7.30;99.90;;;;;;5127425;27;19961;-73
2022/02/02 21:15:10;;;;;;;;;;;7.90;99.90;;;;;;5118010;27;19915;-73
2022/02/02 21:17:37;;;;;;;;;;;8.00;99.90;;;;;;5126149;27;19912;-74
2022/02/02 21:22:54;;;;;;;;;;;8.00;99.90;;;;;;5122618;27;19978;-74
2022/02/02 21:25:36;;;;;;;;;;;8.00;99.90;;;;;;5123479;27;19958;-74
2022/02/02 21:28:03;;;;;;;;;;;7.80;99.90;;;;;;5123653;27;19911;-73
2022/02/02 21:30:30;;;;;;;;;;;7.70;99.90;;;;;;5120635;27;19911;-73
2022/02/02 21:32:56;;;;;;;;;;;7.70;99.90;;;;;;5121708;27;19983;-73
2022/02/02 21:35:22;;;;;;;;;;;7.80;99.90;;;;;;5129429;27;20311;-74
2022/02/02 21:37:51;;;;;;;;;;;8.00;99.90;;;;;;5131414;27;19919;-75
2022/02/02 21:40:20;;;;;;;;;;;8.20;99.90;;;;;;5124427;27;20373;-74
2022/02/02 21:42:46;;;;;;;;;;;8.40;99.90;;;;;;5125206;27;20018;-74
2022/02/02 21:45:12;;;;;;;;;;;8.50;99.90;;;;;;5123460;27;20006;-74
2022/02/02 21:47:38;;;;;;;;;;;8.60;99.90;;;;;;5127623;27;19918;-72
2022/02/02 21:50:09;;;;;;;;;;;8.90;99.90;;;;;;5130244;27;20028;-74
2022/02/02 21:52:35;;;;;;;;;;;8.90;99.90;;;;;;5131710;27;19912;-74
2022/02/02 21:55:02;;;;;;;;;;;8.90;99.90;;;;;;5115121;27;19986;-73
2022/02/02 21:57:28;;;;;;;;;;;9.00;99.90;;;;;;5127457;27;19966;-74
2022/02/02 21:59:53;;;;;;;;;;;8.90;99.90;;;;;;5127927;27;19958;-74
2022/02/02 22:02:19;;;;;;;;;;;8.80;99.90;;;;;;5124119;27;20403;-73
2022/02/02 22:04:45;;;;;;;;;;;8.70;99.90;;;;;;5116819;27;19942;-76
2022/02/02 22:07:10;;;;;;;;;;;8.50;99.90;;;;;;5118202;28;19915;-73
2022/02/02 22:09:38;;;;;;;;;;;8.40;99.90;;;;;;5127932;27;20484;-73
2022/02/02 22:12:03;;;;;;;;;;;8.30;99.90;;;;;;5131290;28;19912;-75
2022/02/02 22:14:31;;;;;;;;;;;8.30;99.90;;;;;;5124835;28;19911;-74
2022/02/02 22:17:00;;;;;;;;;;;8.30;99.90;;;;;;5131745;28;19911;-73
2022/02/02 22:19:26;;;;;;;;;;;8.20;99.90;;;;;;5129002;28;20011;-73
2022/02/02 22:21:51;;;;;;;;;;;8.20;99.90;;;;;;5119440;27;19911;-72
2022/02/02 22:24:17;;;;;;;;;;;8.20;99.90;;;;;;5123744;28;19974;-74
2022/02/02 22:26:43;;;;;;;;;;;8.10;99.90;;;;;;5131802;28;19942;-74
2022/02/02 22:29:08;;;;;;;;;;;8.10;99.90;;;;;;5112804;28;19951;-74
2022/02/02 22:31:34;;;;;;;;;;;8.10;99.90;;;;;;5124206;28;20381;-74
2022/02/02 22:34:00;;;;;;;;;;;8.20;99.90;;;;;;5130272;27;19964;-74
2022/02/02 22:36:25;;;;;;;;;;;8.30;99.90;;;;;;5123868;28;20357;-73
2022/02/02 22:38:51;;;;;;;;;;;8.40;99.90;;;;;;5119020;28;19912;-74
2022/02/02 22:41:17;;;;;;;;;;;8.80;99.90;;;;;;5114122;27;19915;-73
2022/02/02 22:43:48;;;;;;;;;;;9.20;99.90;;;;;;5121280;28;19922;-71
2022/02/02 22:46:14;;;;;;;;;;;9.40;99.90;;;;;;5123101;28;19915;-75
2022/02/02 22:48:42;;;;;;;;;;;9.40;99.90;;;;;;5121572;27;19912;-73
2022/02/02 22:51:09;;;;;;;;;;;9.40;99.90;;;;;;5113398;27;19923;-72
2022/02/02 22:53:34;;;;;;;;;;;9.50;99.90;;;;;;5124782;27;19919;-74
2022/02/02 22:56:00;;;;;;;;;;;9.40;99.90;;;;;;5118351;27;20007;-73
2022/02/02 22:58:25;;;;;;;;;;;9.40;99.90;;;;;;5130130;27;19923;-72
2022/02/02 23:00:51;;;;;;;;;;;9.40;99.90;;;;;;5123868;27;20360;-72
2022/02/02 23:03:20;;;;;;;;;;;9.30;99.90;;;;;;5127107;27;20028;-74
2022/02/02 23:05:51;;;;;;;;;;;9.30;99.90;;;;;;5127892;27;19965;-72
2022/02/02 23:08:19;;;;;;;;;;;9.30;99.90;;;;;;5128814;27;19923;-74
2022/02/02 23:10:44;;;;;;;;;;;9.20;99.90;;;;;;5119198;27;20400;-74
2022/02/02 23:13:11;;;;;;;;;;;9.20;99.90;;;;;;5117239;27;19955;-74
2022/02/02 23:15:54;;;;;;;;;;;9.30;99.90;;;;;;5119738;27;20367;-74
2022/02/02 23:18:30;;;;;;;;;;;9.30;99.90;;;;;;5125406;27;19919;-75
2022/02/02 23:20:59;;;;;;;;;;;9.30;99.90;;;;;;5122011;27;19947;-74
2022/02/02 23:23:27;;;;;;;;;;;9.30;99.90;;;;;;5126276;27;19915;-74
2022/02/02 23:25:54;;;;;;;;;;;9.20;99.90;;;;;;5127437;27;19911;-73
2022/02/02 23:28:27;;;;;;;;;;;9.20;99.90;;;;;;5121531;27;19966;-74
2022/02/02 23:30:53;;;;;;;;;;;9.20;99.90;;;;;;5121463;27;19934;-73
2022/02/02 23:33:19;;;;;;;;;;;9.20;99.90;;;;;;5122651;27;19911;-74
2022/02/02 23:35:45;;;;;;;;;;;9.10;99.90;;;;;;5123000;27;19931;-75
2022/02/02 23:38:13;;;;;;;;;;;8.90;99.90;;;;;;5120303;27;19911;-74
2022/02/02 23:43:16;;;;;;;;;;;8.50;99.90;;;;;;5119415;27;19915;-74
2022/02/02 23:45:59;;;;;;;;;;;8.60;99.90;;;;;;5119870;27;19957;-76
2022/02/02 23:48:27;;;;;;;;;;;8.40;99.90;;;;;;5120689;27;19990;-74
2022/02/02 23:50:55;;;;;;;;;;;8.20;99.90;;;;;;5122875;27;20297;-72
2022/02/02 23:53:22;;;;;;;;;;;8.10;99.90;;;;;;5119962;27;20387;-74
2022/02/02 23:55:53;;;;;;;;;;;7.90;99.90;;;;;;5115801;27;19915;-75
2022/02/02 23:58:30;;;;;;;;;;;7.80;99.90;;;;;;5122943;27;19912;-72
